Time;durP1;ratioP1;P1;durP2;ratioP2;P2;SDS_P1;SDS_P2;PMS_P1;PMS_P2;Temp;Humidity;BMP_temperature;BMP_pressure;BME280_temperature;BME280_humidity;BME280_pressure;Samples;Min_cycle;Max_cycle;Signal;HPM_P1;HPM_P2
2022/01/10 00:01:08;;;;;;;3.00;2.10;;;7.50;78.30;7.50;95648.00;;;;4994427;28;20202;-90
2022/01/10 00:03:35;;;;;;;3.23;1.93;;;7.40;78.30;7.40;95644.00;;;;4994628;28;20195;-89
2022/01/10 00:06:02;;;;;;;2.63;2.40;;;7.40;78.20;7.40;95649.00;;;;4993939;28;20218;-90
2022/01/10 00:08:30;;;;;;;4.53;2.40;;;7.40;78.20;7.40;95639.00;;;;4994362;28;20191;-89
2022/01/10 00:10:58;;;;;;;2.90;2.30;;;7.40;78.30;7.40;95632.00;;;;4997823;28;20206;-90
2022/01/10 00:13:25;;;;;;;2.30;2.10;;;7.40;78.30;7.40;95633.00;;;;4994072;28;20195;-88
2022/01/10 00:15:53;;;;;;;3.60;2.10;;;7.40;78.30;7.40;95633.00;;;;4994307;28;20218;-90
2022/01/10 00:18:20;;;;;;;2.73;2.40;;;7.30;78.40;7.40;95630.00;;;;4994072;28;20215;-90
2022/01/10 00:20:47;;;;;;;2.77;2.50;;;9.00;79.40;7.40;95626.00;;;;4994211;28;20190;-91
2022/01/10 00:23:14;;;;;;;3.93;2.60;;;7.40;78.40;7.40;95631.00;;;;4994432;28;20218;-89
2022/01/10 00:25:41;;;;;;;2.80;2.60;;;7.40;78.50;7.40;95628.00;;;;4993408;28;20217;-90
2022/01/10 00:28:09;;;;;;;2.77;2.60;;;7.40;78.50;7.50;95631.00;;;;4993449;28;20195;-89
2022/01/10 00:30:36;;;;;;;3.00;2.70;;;7.40;78.60;7.40;95630.00;;;;4993823;28;20194;-91
2022/01/10 00:33:03;;;;;;;3.60;2.30;;;7.40;78.60;7.50;95637.00;;;;4994282;28;20579;-90
2022/01/10 00:35:30;;;;;;;2.77;2.20;;;8.50;79.90;7.50;95636.00;;;;4993680;28;20297;-90
2022/01/10 00:37:58;;;;;;;2.43;1.83;;;7.40;78.40;7.50;95635.00;;;;4999784;28;20218;-90
2022/01/10 00:40:25;;;;;;;2.37;2.17;;;7.50;78.40;7.50;95634.00;;;;4993207;28;20191;-90
2022/01/10 00:42:55;;;;;;;3.77;2.37;;;7.40;78.30;7.50;95637.00;;;;4994130;28;20198;-90
2022/01/10 00:45:27;;;;;;;4.53;2.50;;;7.40;78.40;7.50;95636.00;;;;4993187;28;20250;-90
2022/01/10 00:47:56;;;;;;;2.90;2.40;;;7.40;78.50;7.50;95637.00;;;;4993100;28;20201;-89
2022/01/10 00:50:25;;;;;;;2.50;2.30;;;7.40;78.40;7.50;95633.00;;;;4993529;28;20669;-90
2022/01/10 00:52:53;;;;;;;2.60;2.40;;;7.40;78.50;7.50;95649.00;;;;4993449;28;20186;-89
2022/01/10 00:55:21;;;;;;;2.33;2.13;;;7.60;78.50;7.50;95650.00;;;;4993086;28;20228;-89
2022/01/10 00:57:48;;;;;;;2.80;2.00;;;7.40;78.50;7.50;95652.00;;;;4993663;28;20286;-90
2022/01/10 01:00:19;;;;;;;2.63;2.10;;;7.40;78.60;7.50;95648.00;;;;4993585;28;20197;-89
2022/01/10 01:02:49;;;;;;;2.30;2.10;;;7.40;78.60;7.50;95647.00;;;;4993489;28;20274;-90
2022/01/10 01:05:20;;;;;;;2.37;1.93;;;7.80;78.80;7.50;95655.00;;;;4992587;28;20226;-90
2022/01/10 01:07:47;;;;;;;9.80;2.50;;;7.40;78.50;7.50;95660.00;;;;5000253;28;20643;-89
2022/01/10 01:10:56;;;;;;;2.47;2.10;;;7.40;78.50;7.50;95658.00;;;;4993582;28;20285;-91
2022/01/10 01:13:28;;;;;;;2.73;2.13;;;7.40;78.50;7.50;95662.00;;;;4993671;28;20616;-90
2022/01/10 01:16:10;;;;;;;3.00;2.10;;;7.40;78.40;7.50;95670.00;;;;4992584;28;20273;-88
2022/01/10 01:24:09;;;;;;;4.50;2.63;;;7.40;78.50;7.50;95686.00;;;;4992334;28;20257;-90
2022/01/10 01:26:38;;;;;;;3.00;2.07;;;8.10;78.90;7.50;95689.00;;;;4992900;28;20199;-90
2022/01/10 01:29:09;;;;;;;2.63;2.20;;;7.40;78.40;7.50;95689.00;;;;4993047;28;20203;-88
2022/01/10 01:31:36;;;;;;;3.43;2.23;;;7.40;78.30;7.50;95702.00;;;;4993474;28;20579;-89
2022/01/10 01:34:05;;;;;;;2.70;1.97;;;7.40;78.30;7.50;95701.00;;;;4993178;28;20229;-90
2022/01/10 01:36:33;;;;;;;3.50;2.10;;;7.40;78.40;7.40;95710.00;;;;4993152;28;20206;-89
2022/01/10 01:39:04;;;;;;;3.80;2.40;;;8.00;78.80;7.40;95710.00;;;;4995974;28;20227;-89
2022/01/10 01:41:40;;;;;;;2.30;2.10;;;7.40;78.40;7.40;95710.00;;;;4993384;28;20768;-90
2022/01/10 01:44:07;;;;;;;2.63;2.20;;;7.40;78.40;7.40;95719.00;;;;4992092;28;20292;-89
2022/01/10 01:46:35;;;;;;;2.40;2.20;;;7.40;78.30;7.40;95719.00;;;;4992869;28;20206;-89
2022/01/10 01:49:06;;;;;;;2.70;2.00;;;7.30;78.20;7.40;95722.00;;;;4992446;28;20221;-89
2022/01/10 01:51:34;;;;;;;3.47;2.03;;;7.30;78.30;7.40;95721.00;;;;4992694;28;20581;-89
2022/01/10 01:54:02;;;;;;;2.40;2.07;;;7.30;78.40;7.40;95723.00;;;;4992404;28;20222;-89
2022/01/10 01:56:29;;;;;;;2.30;2.10;;;7.30;79.10;7.40;95730.00;;;;4992594;28;20195;-89
2022/01/10 01:58:57;;;;;;;3.50;2.57;;;7.30;78.50;7.40;95725.00;;;;4992671;28;20699;-90
2022/01/10 02:01:25;;;;;;;2.80;2.13;;;7.30;78.50;7.40;95736.00;;;;4992623;28;20197;-90
2022/01/10 02:03:53;;;;;;;4.20;2.60;;;7.30;79.10;7.40;95739.00;;;;4992908;28;20233;-88
2022/01/10 02:06:22;;;;;;;2.60;1.90;;;7.30;78.50;7.40;95735.00;;;;4992560;28;20194;-90
2022/01/10 02:08:49;;;;;;;3.83;2.60;;;7.30;78.50;7.40;95738.00;;;;5001729;28;20204;-89
2022/01/10 02:11:19;;;;;;;2.47;2.27;;;7.30;78.50;7.40;95750.00;;;;4992694;28;20202;-88
2022/01/10 02:13:46;;;;;;;2.33;2.13;;;7.30;78.60;7.30;95747.00;;;;4992273;28;20199;-89
2022/01/10 02:16:19;;;;;;;2.60;2.40;;;7.90;78.90;7.30;95760.00;;;;4992376;28;20653;-90
2022/01/10 02:18:47;;;;;;;2.97;2.00;;;7.30;78.50;7.30;95759.00;;;;4992701;28;20218;-90
2022/01/10 02:21:16;;;;;;;3.07;2.07;;;7.30;78.50;7.40;95770.00;;;;4992986;28;20199;-90
2022/01/10 02:23:43;;;;;;;6.03;2.63;;;7.40;78.50;7.30;95771.00;;;;4996423;28;20261;-89
2022/01/10 02:26:10;;;;;;;2.40;2.07;;;7.30;78.50;7.30;95768.00;;;;4996081;28;20198;-89
2022/01/10 02:28:38;;;;;;;2.30;2.10;;;7.30;78.50;7.30;95767.00;;;;4996064;28;20246;-90
2022/01/10 02:31:06;;;;;;;3.33;2.47;;;7.30;78.50;7.30;95774.00;;;;4996417;28;20290;-89
2022/01/10 02:33:34;;;;;;;8.57;2.40;;;7.30;78.50;7.30;95781.00;;;;4996017;28;20203;-90
2022/01/10 02:36:12;;;;;;;3.03;2.40;;;7.30;78.60;7.30;95780.00;;;;4996060;28;20237;-90
2022/01/10 02:38:49;;;;;;;2.67;2.13;;;7.30;78.50;7.30;95782.00;;;;5013323;28;20383;-89
2022/01/10 02:41:28;;;;;;;5.37;2.30;;;7.30;78.60;7.30;95789.00;;;;5014305;28;20229;-89
2022/01/10 02:43:57;;;;;;;4.00;2.10;;;7.20;78.50;7.30;95788.00;;;;4996493;28;20590;-91
2022/01/10 02:46:26;;;;;;;3.30;2.10;;;7.30;78.60;7.30;95786.00;;;;4995222;28;20673;-90
2022/01/10 02:48:54;;;;;;;2.17;2.07;;;7.30;78.70;7.30;95788.00;;;;4995811;28;20209;-89
2022/01/10 02:51:21;;;;;;;2.63;2.33;;;7.20;78.60;7.30;95792.00;;;;4995803;28;20194;-90
2022/01/10 02:53:49;;;;;;;2.83;2.20;;;7.20;78.60;7.30;95802.00;;;;4996163;28;20198;-89
2022/01/10 02:56:17;;;;;;;2.87;2.53;;;7.20;78.50;7.30;95802.00;;;;4995704;28;20202;-90
2022/01/10 02:58:44;;;;;;;2.93;2.50;;;7.20;78.60;7.30;95808.00;;;;4997010;28;20232;-90
2022/01/10 03:01:11;;;;;;;3.17;2.83;;;7.30;78.70;7.30;95816.00;;;;4990258;28;20209;-90
2022/01/10 03:03:38;;;;;;;3.10;2.80;;;7.20;78.70;7.30;95816.00;;;;4998709;28;20199;-89
2022/01/10 03:06:05;;;;;;;2.53;2.33;;;7.30;78.60;7.30;95818.00;;;;4995145;28;20653;-91
2022/01/10 03:08:33;;;;;;;2.53;2.33;;;7.30;78.50;7.30;95828.00;;;;4995368;28;20199;-88
2022/01/10 03:11:01;;;;;;;2.83;2.20;;;7.30;78.60;7.30;95818.00;;;;4995501;28;20731;-89
2022/01/10 03:13:29;;;;;;;2.57;2.37;;;7.30;78.70;7.30;95821.00;;;;4998671;28;20205;-89
2022/01/10 03:15:56;;;;;;;3.63;2.43;;;7.30;78.70;7.30;95835.00;;;;4992053;28;20724;-90
2022/01/10 03:18:24;;;;;;;2.90;2.57;;;7.30;78.70;7.30;95832.00;;;;4995770;28;20209;-90
2022/01/10 03:20:51;;;;;;;3.20;2.60;;;7.30;78.70;7.30;95834.00;;;;4995218;28;20194;-89
2022/01/10 03:23:18;;;;;;;3.93;2.43;;;7.30;78.70;7.30;95834.00;;;;4995435;28;20195;-89
2022/01/10 03:25:45;;;;;;;3.00;2.67;;;7.20;78.70;7.30;95829.00;;;;4994601;28;20210;-89
2022/01/10 03:28:15;;;;;;;2.63;2.27;;;7.20;78.60;7.30;95829.00;;;;5005966;28;20222;-89
2022/01/10 03:30:42;;;;;;;2.50;2.40;;;7.30;78.50;7.30;95838.00;;;;4980242;28;20207;-90
2022/01/10 03:33:10;;;;;;;2.40;2.20;;;7.20;78.40;7.30;95840.00;;;;4975794;28;20670;-89
2022/01/10 03:35:38;;;;;;;3.27;2.33;;;7.20;78.30;7.30;95842.00;;;;4993220;28;20221;-90
2022/01/10 03:38:05;;;;;;;3.00;2.57;;;7.20;78.30;7.30;95841.00;;;;4994718;28;20199;-88
2022/01/10 03:40:32;;;;;;;2.90;2.23;;;7.20;78.50;7.20;95846.00;;;;4994935;28;20262;-90
2022/01/10 03:42:59;;;;;;;2.97;2.77;;;7.20;78.50;7.30;95845.00;;;;4994568;28;20692;-88
2022/01/10 03:45:28;;;;;;;2.90;2.70;;;7.20;78.60;7.30;95848.00;;;;4994317;28;20214;-90
2022/01/10 03:47:55;;;;;;;2.57;2.37;;;7.20;78.80;7.30;95854.00;;;;4993872;28;20194;-90
2022/01/10 03:50:22;;;;;;;3.17;2.53;;;7.20;78.80;7.30;95847.00;;;;4994948;28;20217;-90
2022/01/10 03:52:49;;;;;;;2.77;2.57;;;7.30;78.80;7.30;95854.00;;;;4995062;28;20266;-90
2022/01/10 03:55:16;;;;;;;4.03;2.83;;;8.10;80.00;7.30;95866.00;;;;5011058;22;20229;-83
2022/01/10 03:57:43;;;;;;;3.53;2.70;;;7.20;78.70;7.30;95863.00;;;;5067832;28;20314;-83
2022/01/10 04:00:12;;;;;;;3.17;2.80;;;7.20;78.80;7.30;95872.00;;;;5068379;28;20216;-83
2022/01/10 04:02:44;;;;;;;4.07;2.77;;;7.20;78.70;7.30;95871.00;;;;5070872;28;20207;-84
2022/01/10 04:05:11;;;;;;;10.40;2.67;;;7.20;78.60;7.30;95871.00;;;;5062124;28;20221;-83
2022/01/10 04:07:38;;;;;;;4.00;2.80;;;7.20;78.60;7.30;95871.00;;;;5053983;28;20205;-83
2022/01/10 04:10:07;;;;;;;3.10;2.80;;;7.20;78.60;7.30;95881.00;;;;5053927;28;20620;-84
2022/01/10 04:12:34;;;;;;;2.70;2.50;;;7.20;78.60;7.30;95880.00;;;;5053610;28;20624;-84
2022/01/10 04:15:01;;;;;;;3.30;2.47;;;7.20;78.60;7.30;95891.00;;;;5053190;28;20253;-83
2022/01/10 04:17:28;;;;;;;6.63;2.73;;;7.20;78.60;7.30;95884.00;;;;5053746;28;20246;-83
2022/01/10 04:19:57;;;;;;;3.70;2.80;;;7.20;78.60;7.30;95887.00;;;;5053199;28;20220;-83
2022/01/10 04:22:24;;;;;;;3.27;2.97;;;7.20;78.60;7.20;95888.00;;;;5054081;28;20199;-83
2022/01/10 04:24:51;;;;;;;3.27;2.73;;;7.20;78.70;7.20;95883.00;;;;5052817;28;20209;-83
2022/01/10 04:27:19;;;;;;;3.07;2.77;;;7.20;78.60;7.30;95893.00;;;;5053310;28;20227;-83
2022/01/10 04:29:46;;;;;;;4.93;2.90;;;7.20;78.50;7.20;95892.00;;;;5053302;28;20278;-84
2022/01/10 04:32:13;;;;;;;3.73;2.77;;;7.20;78.50;7.20;95902.00;;;;5053075;28;20200;-83
2022/01/10 04:34:41;;;;;;;7.93;2.67;;;7.30;78.70;7.20;95897.00;;;;5053624;28;20228;-83
2022/01/10 04:37:09;;;;;;;4.37;2.50;;;7.20;78.70;7.20;95900.00;;;;5052729;28;20208;-83
2022/01/10 04:39:36;;;;;;;3.27;2.63;;;7.20;78.70;7.20;95896.00;;;;5053339;28;20557;-84
2022/01/10 04:42:04;;;;;;;4.10;2.93;;;7.20;78.70;7.20;95903.00;;;;5053077;28;20220;-84
2022/01/10 04:44:31;;;;;;;4.67;3.23;;;7.20;78.80;7.20;95904.00;;;;5052566;28;20205;-83
2022/01/10 04:46:59;;;;;;;4.23;3.33;;;7.20;78.80;7.20;95901.00;;;;5052293;28;20200;-84
2022/01/10 04:49:26;;;;;;;3.93;3.07;;;7.20;78.80;7.20;95905.00;;;;5053257;28;20204;-84
2022/01/10 04:51:54;;;;;;;4.67;3.23;;;7.20;78.90;7.20;95908.00;;;;5056920;28;20208;-84
2022/01/10 04:54:26;;;;;;;3.50;3.10;;;7.20;78.80;7.30;95922.00;;;;5053743;28;22330;-84
2022/01/10 04:56:53;;;;;;;5.50;3.43;;;7.20;78.80;7.30;95921.00;;;;5039306;28;20222;-83
2022/01/10 04:59:20;;;;;;;4.93;3.77;;;7.20;78.90;7.30;95937.00;;;;5052515;28;20307;-83
2022/01/10 05:01:47;;;;;;;4.63;3.63;;;7.20;78.90;7.30;95933.00;;;;5052914;28;20313;-84
2022/01/10 05:04:14;;;;;;;5.50;3.70;;;7.20;78.80;7.30;95944.00;;;;5042369;28;20209;-84
2022/01/10 05:06:42;;;;;;;9.70;4.10;;;7.20;78.80;7.30;95951.00;;;;5032635;28;20196;-84
2022/01/10 05:09:09;;;;;;;3.73;3.43;;;7.20;78.80;7.30;95947.00;;;;5037822;28;20203;-83
2022/01/10 05:11:39;;;;;;;4.67;3.23;;;7.30;78.90;7.30;95956.00;;;;5052841;28;20204;-84
2022/01/10 05:14:07;;;;;;;3.57;3.27;;;7.30;78.90;7.30;95966.00;;;;5052086;28;20227;-84
2022/01/10 05:16:34;;;;;;;4.67;4.20;;;7.30;79.00;7.30;95965.00;;;;5052051;28;20207;-83
2022/01/10 05:19:01;;;;;;;4.47;4.07;;;7.30;79.00;7.30;95972.00;;;;5052082;28;20208;-83
2022/01/10 05:21:28;;;;;;;4.97;4.47;;;7.30;79.00;7.40;95970.00;;;;5052476;28;20205;-83
2022/01/10 05:23:55;;;;;;;9.57;5.03;;;7.30;79.00;7.40;95981.00;;;;5052658;28;20196;-84
2022/01/10 05:26:22;;;;;;;7.43;5.00;;;7.30;79.00;7.40;95972.00;;;;5051969;28;20224;-83
2022/01/10 05:28:52;;;;;;;14.53;5.30;;;7.40;79.10;7.40;95982.00;;;;5051990;28;20284;-84
2022/01/10 05:31:19;;;;;;;6.90;5.00;;;7.40;79.00;7.40;95980.00;;;;5052284;28;20201;-84
2022/01/10 05:33:46;;;;;;;6.13;5.33;;;7.50;79.00;7.40;95986.00;;;;5052326;28;20192;-83
2022/01/10 05:36:13;;;;;;;5.93;5.07;;;7.40;78.90;7.40;95991.00;;;;5051945;28;20217;-83
2022/01/10 05:38:41;;;;;;;7.57;5.30;;;7.40;78.80;7.40;96002.00;;;;5051824;28;20680;-83
2022/01/10 05:41:08;;;;;;;5.20;4.70;;;7.40;78.80;7.40;95999.00;;;;5051820;28;20311;-84
2022/01/10 05:43:35;;;;;;;5.53;5.00;;;7.40;78.80;7.40;96007.00;;;;5051532;28;20200;-84
2022/01/10 05:46:07;;;;;;;7.63;5.37;;;7.40;78.70;7.40;96011.00;;;;5051705;28;20227;-84
2022/01/10 05:48:35;;;;;;;8.07;5.57;;;7.40;78.70;7.40;96021.00;;;;5051481;28;20184;-84
2022/01/10 05:51:02;;;;;;;6.70;5.30;;;7.40;78.60;7.40;96018.00;;;;5052036;28;20200;-83
2022/01/10 05:53:30;;;;;;;6.50;5.17;;;7.40;78.60;7.40;96027.00;;;;5051801;28;20673;-84
2022/01/10 05:55:57;;;;;;;7.67;5.07;;;7.50;78.60;7.40;96028.00;;;;5051063;28;20225;-83
2022/01/10 05:58:26;;;;;;;5.73;5.17;;;7.40;79.30;7.40;96025.00;;;;5054511;28;20207;-84
2022/01/10 06:00:53;;;;;;;7.07;5.27;;;7.40;78.60;7.40;96019.00;;;;5054558;28;20222;-83
2022/01/10 06:03:21;;;;;;;7.57;5.37;;;7.40;78.60;7.40;96038.00;;;;5054130;28;20223;-83
2022/01/10 06:05:48;;;;;;;8.50;5.40;;;7.40;78.60;7.40;96041.00;;;;5054497;28;20220;-84
2022/01/10 06:08:16;;;;;;;6.90;5.40;;;7.40;78.60;7.40;96051.00;;;;5054505;28;20583;-84
2022/01/10 06:10:43;;;;;;;6.57;5.23;;;7.40;78.70;7.40;96052.00;;;;5054863;28;20572;-84
2022/01/10 06:13:10;;;;;;;7.90;5.20;;;7.30;78.60;7.40;96057.00;;;;5054141;28;20192;-83
2022/01/10 06:15:38;;;;;;;7.10;5.33;;;7.40;78.70;7.40;96052.00;;;;5054208;28;20580;-83
2022/01/10 06:18:05;;;;;;;6.63;5.13;;;7.40;78.70;7.40;96055.00;;;;5054247;28;20200;-84
2022/01/10 06:20:34;;;;;;;8.70;5.60;;;7.40;78.80;7.40;96058.00;;;;5053612;28;20678;-83
2022/01/10 06:23:01;;;;;;;8.07;6.13;;;7.40;78.70;7.40;96068.00;;;;5054208;28;20196;-84
2022/01/10 06:25:29;;;;;;;7.63;5.83;;;7.40;78.50;7.40;96062.00;;;;5053939;28;20213;-83
2022/01/10 06:27:57;;;;;;;7.27;5.13;;;7.40;78.40;7.40;96062.00;;;;5054152;28;20193;-84
2022/01/10 06:30:24;;;;;;;6.83;6.00;;;7.40;78.50;7.40;96068.00;;;;5053176;28;20211;-83
2022/01/10 06:32:51;;;;;;;6.37;5.07;;;7.40;78.50;7.40;96078.00;;;;5053803;28;20200;-83
2022/01/10 06:35:18;;;;;;;7.10;5.33;;;7.40;79.20;7.40;96080.00;;;;5053889;28;20220;-83
2022/01/10 06:37:47;;;;;;;11.13;5.70;;;7.40;78.60;7.40;96089.00;;;;5053275;28;20865;-83
2022/01/10 06:40:14;;;;;;;7.83;5.70;;;7.40;78.60;7.40;96097.00;;;;5053471;28;20266;-83
2022/01/10 06:42:41;;;;;;;9.13;5.67;;;7.40;78.60;7.40;96099.00;;;;5053923;28;20768;-83
2022/01/10 06:45:10;;;;;;;8.20;5.80;;;7.40;78.60;7.50;96107.00;;;;5053690;28;20231;-83
2022/01/10 06:47:37;;;;;;;8.10;5.77;;;7.40;78.70;7.50;96108.00;;;;5053731;28;20203;-84
2022/01/10 06:50:06;;;;;;;6.17;5.53;;;7.40;78.70;7.60;96109.00;;;;5053636;28;20196;-83
2022/01/10 06:52:34;;;;;;;8.23;5.63;;;7.40;78.70;7.60;96114.00;;;;5053786;28;20204;-84
2022/01/10 06:55:02;;;;;;;8.67;6.37;;;7.50;78.60;7.60;96122.00;;;;5051870;28;20219;-84
2022/01/10 06:57:29;;;;;;;7.07;5.60;;;7.50;78.60;7.60;96134.00;;;;5008045;28;1060698;-83
2022/01/10 06:59:56;;;;;;;6.03;5.43;;;7.50;78.50;7.70;96142.00;;;;5047006;28;20221;-83
2022/01/10 07:02:23;;;;;;;6.43;5.17;;;7.50;78.30;7.70;96139.00;;;;5042845;28;20190;-83
2022/01/10 07:04:50;;;;;;;8.90;5.17;;;7.50;78.20;7.70;96149.00;;;;5050457;28;20239;-83
2022/01/10 07:07:17;;;;;;;8.33;6.07;;;7.60;78.40;7.70;96147.00;;;;5053600;28;20204;-83
2022/01/10 07:09:44;;;;;;;6.57;5.20;;;7.50;78.30;7.70;96163.00;;;;5054754;28;20196;-83
2022/01/10 07:12:14;;;;;;;7.33;5.87;;;7.50;78.40;7.70;96160.00;;;;5054626;28;20201;-84
2022/01/10 07:14:41;;;;;;;8.63;5.60;;;7.50;78.20;7.70;96157.00;;;;5054147;28;20216;-81
2022/01/10 07:17:08;;;;;;;8.67;6.43;;;7.50;78.30;7.70;96173.00;;;;5053649;28;20188;-84
2022/01/10 07:19:36;;;;;;;8.70;5.50;;;7.50;78.30;7.70;96172.00;;;;5036886;28;20201;-84
2022/01/10 07:22:04;;;;;;;6.60;5.00;;;7.50;78.30;7.70;96173.00;;;;5049704;28;20195;-84
2022/01/10 07:24:32;;;;;;;15.33;6.53;;;7.50;78.40;7.70;96179.00;;;;5034346;28;20217;-84
2022/01/10 07:26:59;;;;;;;8.00;5.83;;;7.60;78.50;7.70;96179.00;;;;5030145;28;20205;-84
2022/01/10 07:29:27;;;;;;;6.57;5.83;;;7.50;78.40;7.80;96191.00;;;;5047576;28;20254;-84
2022/01/10 07:31:54;;;;;;;10.43;6.23;;;7.60;78.50;7.80;96192.00;;;;5052800;28;20662;-84
2022/01/10 07:34:21;;;;;;;8.27;5.90;;;7.60;78.50;7.80;96199.00;;;;5054088;28;20217;-84
2022/01/10 07:36:48;;;;;;;8.93;6.00;;;7.60;78.50;7.80;96204.00;;;;5053114;28;20199;-84
2022/01/10 07:39:16;;;;;;;7.30;6.60;;;7.50;78.40;7.80;96202.00;;;;5053817;28;20203;-84
2022/01/10 07:41:43;;;;;;;10.73;6.33;;;7.60;78.40;7.80;96215.00;;;;5053552;28;20223;-84
2022/01/10 07:44:10;;;;;;;9.17;6.60;;;7.60;78.60;7.90;96215.00;;;;5053883;28;20556;-84
2022/01/10 07:46:38;;;;;;;7.67;5.60;;;7.60;78.40;7.90;96220.00;;;;5053772;28;20209;-84
2022/01/10 07:49:05;;;;;;;9.73;6.83;;;7.60;78.50;7.90;96221.00;;;;5053530;28;20714;-84
2022/01/10 07:51:32;;;;;;;9.40;6.17;;;7.60;78.60;7.90;96232.00;;;;5053627;28;20188;-83
2022/01/10 07:54:00;;;;;;;11.53;6.97;;;7.70;78.60;7.90;96240.00;;;;5052463;28;20204;-83
2022/01/10 07:56:27;;;;;;;9.43;6.10;;;7.70;78.70;8.00;96244.00;;;;5053676;28;20227;-83
2022/01/10 07:58:56;;;;;;;14.20;6.83;;;7.70;78.60;8.00;96250.00;;;;5052817;28;20192;-84
2022/01/10 08:01:24;;;;;;;8.50;5.67;;;7.70;78.60;8.00;96249.00;;;;5055214;28;20235;-83
2022/01/10 08:03:53;;;;;;;7.90;6.13;;;7.80;78.70;8.10;96252.00;;;;5053999;28;20203;-81
2022/01/10 08:06:22;;;;;;;10.10;6.90;;;7.80;78.70;8.10;96256.00;;;;5051353;28;20712;-83
2022/01/10 08:08:49;;;;;;;10.90;7.00;;;7.80;78.90;8.10;96248.00;;;;5052578;28;20279;-85
2022/01/10 08:11:17;;;;;;;9.40;6.23;;;7.80;78.90;8.20;96265.00;;;;5053858;28;20219;-84
2022/01/10 08:13:44;;;;;;;7.80;6.50;;;7.90;78.80;8.20;96267.00;;;;5053280;28;20672;-85
2022/01/10 08:16:11;;;;;;;8.60;6.63;;;7.90;78.80;8.20;96271.00;;;;5052454;28;20307;-84
2022/01/10 08:18:38;;;;;;;9.07;6.80;;;7.90;78.70;8.30;96278.00;;;;5050518;28;20290;-84
2022/01/10 08:21:06;;;;;;;7.53;6.23;;;8.00;78.70;8.30;96284.00;;;;5041621;28;20307;-83
2022/01/10 08:23:34;;;;;;;9.07;6.77;;;8.00;78.40;8.30;96277.00;;;;5046683;28;20610;-84
2022/01/10 08:26:01;;;;;;;11.80;7.10;;;8.00;78.50;8.30;96279.00;;;;5042953;28;20208;-83
2022/01/10 08:28:28;;;;;;;8.83;6.73;;;8.00;78.40;8.30;96288.00;;;;5049463;28;20192;-84
2022/01/10 08:30:55;;;;;;;8.33;6.33;;;8.00;78.10;8.30;96284.00;;;;5044241;28;20192;-84
2022/01/10 08:33:22;;;;;;;9.80;7.10;;;8.10;78.30;8.40;96288.00;;;;5051621;28;20192;-83
2022/01/10 08:35:51;;;;;;;8.23;6.67;;;8.70;78.70;8.40;96298.00;;;;5052438;28;20720;-84
2022/01/10 08:38:20;;;;;;;9.80;7.20;;;8.10;78.20;8.40;96296.00;;;;5052173;28;20658;-83
2022/01/10 08:40:47;;;;;;;7.10;6.27;;;8.10;78.20;8.40;96305.00;;;;5048150;28;20216;-83
2022/01/10 08:43:16;;;;;;;9.70;7.03;;;8.10;78.10;8.40;96298.00;;;;5045289;28;20203;-84
2022/01/10 08:45:44;;;;;;;8.50;6.77;;;8.20;78.30;8.50;96313.00;;;;5050270;28;20303;-84
2022/01/10 08:48:11;;;;;;;6.83;6.10;;;8.20;78.40;8.50;96310.00;;;;5050022;28;20266;-83
2022/01/10 08:50:38;;;;;;;8.87;6.70;;;8.20;78.30;8.50;96317.00;;;;5052501;28;20200;-83
2022/01/10 08:53:10;;;;;;;7.70;6.27;;;8.20;78.30;8.60;96323.00;;;;5051335;28;20197;-83
2022/01/10 08:55:39;;;;;;;10.10;6.47;;;8.20;78.20;8.60;96325.00;;;;5051641;28;20729;-83
2022/01/10 08:58:06;;;;;;;8.03;6.20;;;8.30;78.10;8.70;96337.00;;;;5050320;28;20189;-83
2022/01/10 09:00:33;;;;;;;6.63;5.80;;;8.30;78.10;8.70;96342.00;;;;5049856;28;20227;-84
2022/01/10 09:03:01;;;;;;;7.17;5.80;;;8.40;78.00;8.70;96344.00;;;;5051086;28;20277;-83
2022/01/10 09:05:29;;;;;;;8.40;6.30;;;8.40;77.90;8.80;96351.00;;;;5048889;28;20212;-83
2022/01/10 09:07:58;;;;;;;9.10;6.13;;;8.40;77.80;8.80;96360.00;;;;5052483;28;20207;-84
2022/01/10 09:10:26;;;;;;;6.93;6.17;;;8.60;78.00;8.90;96365.00;;;;5049950;28;20471;-83
2022/01/10 09:12:55;;;;;;;7.33;6.43;;;8.50;77.80;8.90;96368.00;;;;5039493;28;20530;-83
2022/01/10 09:15:23;;;;;;;7.50;6.27;;;8.60;77.60;8.90;96374.00;;;;5050213;28;20224;-83
2022/01/10 09:17:50;;;;;;;8.27;6.00;;;8.60;77.40;8.90;96382.00;;;;5051463;28;20196;-83
2022/01/10 09:20:17;;;;;;;7.87;6.37;;;8.70;77.50;8.90;96390.00;;;;5049572;28;20283;-83
2022/01/10 09:22:44;;;;;;;7.97;6.17;;;8.70;77.70;9.00;96392.00;;;;5049100;28;20216;-83
2022/01/10 09:25:12;;;;;;;10.50;5.70;;;8.70;77.70;9.00;96398.00;;;;5049531;28;20232;-83
2022/01/10 09:27:39;;;;;;;8.77;5.83;;;8.70;77.50;9.00;96398.00;;;;5050965;28;20682;-83
2022/01/10 09:30:09;;;;;;;6.90;5.73;;;8.70;77.40;9.00;96390.00;;;;5050870;28;20189;-83
2022/01/10 09:32:36;;;;;;;8.90;6.50;;;8.80;77.20;9.00;96395.00;;;;5051310;28;20200;-83
2022/01/10 09:35:04;;;;;;;8.17;6.27;;;8.70;77.20;9.00;96397.00;;;;5051111;28;20251;-83
2022/01/10 09:37:41;;;;;;;11.37;7.00;;;8.80;77.10;9.00;96395.00;;;;5042200;28;20601;-83
2022/01/10 09:40:10;;;;;;;10.83;6.40;;;8.80;77.10;9.00;96403.00;;;;5043087;28;20204;-83
2022/01/10 09:42:38;;;;;;;8.70;6.47;;;8.80;77.00;9.10;96409.00;;;;5047553;28;20192;-83
2022/01/10 09:45:34;;;;;;;7.20;6.30;;;8.80;77.00;9.10;96411.00;;;;5050148;28;20224;-83
2022/01/10 09:48:01;;;;;;;9.17;5.33;;;9.30;77.10;9.10;96417.00;;;;5038127;28;20196;-83
2022/01/10 09:50:29;;;;;;;9.33;5.80;;;8.90;77.00;9.10;96425.00;;;;5051188;28;20289;-84
2022/01/10 09:52:56;;;;;;;7.80;5.40;;;8.80;77.10;9.20;96426.00;;;;5051807;28;20192;-86
2022/01/10 09:55:24;;;;;;;8.43;5.97;;;8.90;77.20;9.20;96434.00;;;;5039459;28;20213;-85
2022/01/10 09:57:52;;;;;;;7.67;5.93;;;8.90;77.30;9.30;96440.00;;;;5032101;28;20194;-81
2022/01/10 10:00:20;;;;;;;6.53;5.50;;;9.00;77.10;9.30;96446.00;;;;5031668;28;20475;-81
2022/01/10 10:02:50;;;;;;;8.30;6.23;;;9.00;77.70;9.30;96447.00;;;;5041324;28;20662;-83
2022/01/10 10:05:17;;;;;;;7.73;6.07;;;9.00;77.20;9.40;96458.00;;;;5051257;28;20209;-82
2022/01/10 10:07:44;;;;;;;9.00;6.87;;;9.00;77.10;9.40;96451.00;;;;5041142;28;20204;-85
2022/01/10 10:10:18;;;;;;;8.07;6.60;;;9.10;77.20;9.50;96450.00;;;;5033284;28;20201;-83
2022/01/10 10:12:48;;;;;;;8.13;6.20;;;9.10;77.20;9.50;96458.00;;;;5032209;28;20206;-81
2022/01/10 10:15:19;;;;;;;8.70;5.83;;;9.10;76.80;9.50;96461.00;;;;5032977;28;20717;-81
2022/01/10 10:17:48;;;;;;;10.27;6.83;;;9.10;76.20;9.40;96472.00;;;;5033835;28;20185;-81
2022/01/10 10:20:21;;;;;;;6.77;5.80;;;9.20;75.80;9.40;96476.00;;;;5032403;28;20640;-82
2022/01/10 10:22:51;;;;;;;8.73;6.03;;;9.20;75.80;9.40;96476.00;;;;5032800;28;20624;-83
2022/01/10 10:25:20;;;;;;;7.10;5.90;;;9.10;75.70;9.40;96483.00;;;;5046165;28;20275;-82
2022/01/10 10:27:49;;;;;;;9.23;6.40;;;9.10;76.10;9.40;96483.00;;;;5039227;28;20200;-83
2022/01/10 10:30:32;;;;;;;9.53;6.57;;;9.20;76.20;9.40;96486.00;;;;5045065;28;20638;-83
2022/01/10 10:33:14;;;;;;;8.50;5.77;;;9.20;75.70;9.40;96490.00;;;;5041117;28;20639;-84
2022/01/10 10:35:43;;;;;;;8.60;6.20;;;9.20;75.70;9.40;96495.00;;;;5042328;28;20227;-83
2022/01/10 10:38:15;;;;;;;7.20;5.70;;;9.20;76.00;9.40;96497.00;;;;5042559;28;20644;-83
2022/01/10 10:40:45;;;;;;;7.93;5.87;;;9.20;76.00;9.50;96495.00;;;;5043060;28;20224;-83
2022/01/10 10:43:15;;;;;;;6.40;5.50;;;9.20;76.00;9.50;96503.00;;;;5053847;28;20284;-81
2022/01/10 10:45:43;;;;;;;7.07;5.70;;;9.20;76.20;9.50;96500.00;;;;5056837;28;20634;-84
2022/01/10 10:48:12;;;;;;;8.17;5.87;;;9.20;76.40;9.60;96507.00;;;;5057106;28;20291;-85
2022/01/10 10:50:42;;;;;;;6.90;5.50;;;9.20;76.40;9.60;96504.00;;;;5053584;28;20287;-83
2022/01/10 10:53:16;;;;;;;7.13;5.47;;;9.30;76.90;9.60;96508.00;;;;5045445;28;20186;-83
2022/01/10 10:55:46;;;;;;;6.87;5.43;;;9.30;76.00;9.60;96513.00;;;;5055351;28;20721;-84
2022/01/10 10:58:14;;;;;;;8.10;5.60;;;9.30;76.00;9.60;96513.00;;;;5053194;28;20200;-84
2022/01/10 11:00:44;;;;;;;6.60;5.30;;;9.30;75.80;9.70;96511.00;;;;5056849;28;20197;-84
2022/01/10 11:03:18;;;;;;;7.13;5.87;;;9.40;75.70;9.70;96510.00;;;;5055019;28;20650;-84
2022/01/10 11:05:48;;;;;;;5.60;5.00;;;9.40;76.00;9.70;96519.00;;;;5055495;28;20212;-83
2022/01/10 11:08:15;;;;;;;7.67;5.93;;;9.40;76.00;9.80;96531.00;;;;5054781;28;20205;-83
2022/01/10 11:10:43;;;;;;;8.07;5.73;;;9.40;75.90;9.80;96538.00;;;;5054648;28;20204;-83
2022/01/10 11:13:12;;;;;;;8.73;5.83;;;9.50;75.50;9.80;96533.00;;;;5054771;28;20207;-83
2022/01/10 11:15:40;;;;;;;6.60;5.67;;;9.50;75.80;9.90;96531.00;;;;5054095;28;20303;-83
2022/01/10 11:18:10;;;;;;;5.27;4.77;;;9.60;75.60;9.90;96540.00;;;;5055006;28;20319;-83
2022/01/10 11:20:46;;;;;;;5.77;4.73;;;9.60;75.40;9.90;96545.00;;;;5054489;28;20193;-83